createdAt,value
2022-08-12T00:01:05.922Z,10.30
2022-08-12T00:03:52.058Z,5.82
2022-08-12T00:06:41.163Z,10.35
2022-08-12T00:09:27.667Z,11.23
2022-08-12T00:12:13.681Z,5.63
2022-08-12T00:15:01.267Z,11.50
2022-08-12T00:17:47.792Z,8.55
2022-08-12T00:20:33.643Z,6.38
2022-08-12T00:23:20.199Z,9.93
2022-08-12T00:26:22.542Z,6.13
2022-08-12T00:29:12.207Z,5.80
2022-08-12T00:32:00.571Z,10.15
2022-08-12T00:34:49.258Z,6.32
2022-08-12T00:37:35.732Z,6.78
2022-08-12T00:40:25.510Z,10.70
2022-08-12T00:42:53.510Z,6.13
2022-08-12T00:45:21.386Z,6.25
2022-08-12T00:47:51.660Z,9.25
2022-08-12T00:50:21.194Z,5.75
2022-08-12T00:52:52.995Z,10.45
2022-08-12T00:55:21.504Z,5.32
2022-08-12T00:57:50.893Z,6.57
2022-08-12T01:00:24.843Z,6.10
2022-08-12T01:02:55.647Z,8.70
2022-08-12T01:05:42.778Z,8.10
2022-08-12T01:08:29.298Z,6.55
2022-08-12T01:11:15.737Z,6.47
2022-08-12T01:13:47.556Z,5.53
2022-08-12T01:16:17.821Z,6.70
2022-08-12T01:18:45.322Z,7.07
2022-08-12T01:21:17.702Z,6.35
2022-08-12T01:23:59.719Z,6.72
2022-08-12T01:26:47.635Z,6.90
2022-08-12T01:29:26.404Z,9.55
2022-08-12T01:31:58.826Z,10.07
2022-08-12T01:34:37.502Z,7.93
2022-08-12T01:37:07.954Z,6.15
2022-08-12T01:40:33.495Z,6.18
2022-08-12T01:42:51.095Z,5.65
2022-08-12T01:45:24.707Z,7.20
2022-08-12T01:48:22.840Z,7.15
2022-08-12T01:52:15.916Z,5.70
2022-08-12T01:54:11.262Z,6.90
2022-08-12T01:56:52.682Z,4.05
2022-08-12T02:00:00.227Z,5.03
2022-08-12T02:02:30.147Z,5.35
2022-08-12T02:05:34.042Z,7.05
2022-08-12T02:08:28.641Z,3.53
2022-08-12T02:11:22.918Z,3.85
2022-08-12T02:14:18.888Z,6.32
2022-08-12T02:17:19.648Z,5.53
2022-08-12T02:20:21.922Z,4.25
2022-08-12T02:22:51.981Z,4.10
2022-08-12T02:25:28.266Z,7.07
2022-08-12T02:27:56.777Z,4.78
2022-08-12T02:30:38.350Z,6.15
2022-08-12T02:33:11.315Z,4.85
2022-08-12T02:35:39.769Z,7.25
2022-08-12T02:38:11.088Z,4.68
2022-08-12T02:40:40.863Z,5.60
2022-08-12T02:43:27.567Z,5.68
2022-08-12T02:46:04.459Z,3.75
2022-08-12T02:48:46.392Z,11.80
2022-08-12T02:51:17.499Z,6.40
2022-08-12T02:53:45.344Z,6.13
2022-08-12T02:56:33.109Z,5.40
2022-08-12T02:59:01.414Z,5.40
2022-08-12T03:01:42.588Z,4.63
2022-08-12T03:04:43.445Z,7.22
2022-08-12T03:07:14.528Z,7.82
2022-08-12T03:10:04.739Z,6.18
2022-08-12T03:12:48.887Z,6.95
2022-08-12T03:15:22.267Z,6.93
2022-08-12T03:18:27.401Z,5.55
2022-08-12T03:20:58.345Z,5.20
2022-08-12T03:23:29.723Z,13.90
2022-08-12T03:26:03.419Z,7.22
2022-08-12T03:28:53.365Z,6.55
2022-08-12T03:31:30.095Z,5.20
2022-08-12T03:34:03.476Z,5.32
2022-08-12T03:36:35.448Z,6.43
2022-08-12T03:39:36.004Z,6.05
2022-08-12T03:42:34.576Z,9.13
2022-08-12T03:45:51.498Z,5.15
2022-08-12T03:48:39.135Z,6.82
2022-08-12T03:51:26.717Z,5.78
2022-08-12T03:54:12.672Z,5.78
2022-08-12T03:56:58.554Z,4.65
2022-08-12T03:59:44.446Z,6.35
2022-08-12T04:02:16.161Z,7.20
2022-08-12T04:04:45.584Z,4.22
2022-08-12T04:07:14.234Z,7.13
2022-08-12T04:09:43.432Z,8.20
2022-08-12T04:12:32.336Z,9.68
2022-08-12T04:15:14.529Z,11.05
2022-08-12T04:18:07.630Z,4.97
2022-08-12T04:20:30.161Z,7.20
2022-08-12T04:22:58.324Z,5.40
2022-08-12T04:25:26.997Z,4.18
2022-08-12T04:27:55.066Z,6.38
2022-08-12T04:30:32.357Z,5.18
2022-08-12T04:33:00.641Z,4.22
2022-08-12T04:35:28.322Z,6.65
2022-08-12T04:37:58.535Z,7.03
2022-08-12T04:40:30.755Z,6.47
2022-08-12T04:42:58.740Z,5.03
2022-08-12T04:45:25.653Z,4.20
2022-08-12T04:47:53.168Z,2.78
2022-08-12T04:50:26.961Z,6.30
2022-08-12T04:53:08.834Z,6.70
2022-08-12T04:55:38.083Z,6.82
2022-08-12T04:58:06.480Z,4.25
2022-08-12T05:00:34.410Z,2.83
2022-08-12T05:03:01.566Z,5.90
2022-08-12T05:05:35.252Z,4.97
2022-08-12T05:08:03.634Z,4.25
2022-08-12T05:10:33.968Z,7.68
2022-08-12T05:13:08.304Z,6.87
2022-08-12T05:16:04.570Z,6.07
2022-08-12T05:18:28.971Z,4.60
2022-08-12T05:20:58.812Z,4.25
2022-08-12T05:23:25.924Z,5.15
2022-08-12T05:25:56.481Z,5.60
2022-08-12T05:28:25.049Z,6.95
2022-08-12T05:30:51.925Z,5.75
2022-08-12T05:33:19.054Z,4.78
2022-08-12T05:35:50.135Z,4.38
2022-08-12T05:38:37.549Z,6.68
2022-08-12T05:41:19.051Z,6.05
2022-08-12T05:43:48.449Z,4.80
2022-08-12T05:46:19.461Z,5.57
2022-08-12T05:48:46.795Z,3.95
2022-08-12T05:51:13.731Z,8.95
2022-08-12T05:53:41.666Z,9.95
2022-08-12T05:56:23.214Z,6.28
2022-08-12T05:58:52.991Z,4.68
2022-08-12T06:02:12.012Z,3.30
2022-08-12T06:04:09.318Z,5.45
2022-08-12T06:06:41.759Z,4.78
2022-08-12T06:09:13.264Z,8.55
2022-08-12T06:12:05.662Z,8.23
2022-08-12T06:14:36.550Z,6.07
2022-08-12T06:17:05.299Z,6.63
2022-08-12T06:20:26.366Z,4.45
2022-08-12T06:22:19.682Z,6.05
2022-08-12T06:24:48.568Z,3.65
2022-08-12T06:27:17.967Z,6.30
2022-08-12T06:30:09.731Z,6.90
2022-08-12T06:32:32.188Z,10.20
2022-08-12T06:35:26.296Z,5.00
2022-08-12T06:37:50.360Z,5.75
2022-08-12T06:40:43.182Z,4.82
2022-08-12T06:43:10.029Z,3.97
2022-08-12T06:45:46.776Z,5.65
2022-08-12T06:48:14.697Z,7.13
2022-08-12T06:50:42.526Z,8.65
2022-08-12T06:53:11.274Z,4.80
2022-08-12T06:55:56.747Z,3.25
2022-08-12T06:58:27.072Z,3.28
2022-08-12T07:00:54.667Z,4.55
2022-08-12T07:03:25.696Z,7.45
2022-08-12T07:05:53.877Z,4.00
2022-08-12T07:08:21.294Z,3.33
2022-08-12T07:10:53.518Z,4.65
2022-08-12T07:13:20.680Z,2.63
2022-08-12T07:15:47.617Z,5.10
2022-08-12T07:18:20.334Z,4.20
2022-08-12T07:23:20.791Z,5.22
2022-08-12T07:25:47.800Z,6.15
2022-08-12T07:28:23.474Z,4.88
2022-08-12T07:30:53.746Z,5.30
2022-08-12T07:33:23.253Z,3.63
2022-08-12T07:35:52.912Z,4.07
2022-08-12T07:38:36.194Z,3.42
2022-08-12T07:41:03.338Z,2.50
2022-08-12T07:43:33.344Z,3.67
2022-08-12T07:46:00.990Z,4.32
2022-08-12T07:48:34.447Z,7.82
2022-08-12T07:51:01.431Z,4.50
2022-08-12T07:53:28.335Z,9.45
2022-08-12T07:55:56.175Z,5.65
2022-08-12T07:58:26.316Z,5.05
2022-08-12T08:00:57.294Z,5.70
2022-08-12T08:03:27.233Z,8.27
2022-08-12T08:05:54.196Z,7.60
2022-08-12T08:08:26.645Z,5.45
2022-08-12T08:11:35.315Z,2.33
2022-08-12T08:14:03.433Z,3.72
2022-08-12T08:16:30.610Z,3.50
2022-08-12T08:18:59.431Z,3.17
2022-08-12T08:21:35.516Z,4.85
2022-08-12T08:24:15.670Z,4.82
2022-08-12T08:26:49.886Z,7.95
2022-08-12T08:29:18.010Z,2.75
2022-08-12T08:31:46.629Z,4.40
2022-08-12T08:34:40.116Z,4.82
2022-08-12T08:37:05.497Z,9.20
2022-08-12T08:39:34.957Z,7.45
2022-08-12T08:42:20.929Z,5.28
2022-08-12T08:44:49.690Z,7.63
2022-08-12T08:47:25.721Z,6.03
2022-08-12T08:49:52.716Z,8.10
2022-08-12T08:52:37.108Z,4.60
2022-08-12T08:55:08.486Z,5.38
2022-08-12T08:57:42.958Z,4.45
2022-08-12T09:00:20.366Z,4.65
2022-08-12T09:02:58.667Z,3.83
2022-08-12T09:05:28.008Z,2.97
2022-08-12T09:08:13.088Z,4.03
2022-08-12T09:14:10.420Z,6.03
2022-08-12T09:19:27.422Z,7.22
2022-08-12T09:21:55.634Z,4.00
2022-08-12T09:24:27.898Z,5.40
2022-08-12T09:26:57.152Z,4.15
2022-08-12T09:30:11.877Z,4.30
2022-08-12T09:32:29.415Z,3.35
2022-08-12T09:35:01.166Z,5.57
2022-08-12T09:37:55.056Z,3.28
2022-08-12T09:41:02.044Z,2.55
2022-08-12T09:43:24.739Z,4.00
2022-08-12T09:46:07.082Z,5.15
2022-08-12T09:48:55.655Z,2.45
2022-08-12T09:51:24.148Z,9.52
2022-08-12T09:54:05.944Z,4.35
2022-08-12T09:56:58.098Z,2.35
2022-08-12T10:00:15.330Z,2.25
2022-08-12T10:02:42.865Z,5.38
2022-08-12T10:05:05.146Z,3.55
2022-08-12T10:07:39.635Z,4.38
2022-08-12T10:10:22.848Z,2.80
2022-08-12T10:13:35.099Z,2.53
2022-08-12T10:16:06.475Z,2.20
2022-08-12T10:18:51.289Z,3.65
2022-08-12T10:21:35.637Z,4.22
2022-08-12T10:24:05.784Z,3.30
2022-08-12T10:26:53.092Z,3.78
2022-08-12T10:30:37.439Z,2.67
2022-08-12T10:32:43.975Z,4.28
2022-08-12T10:35:14.822Z,2.33
2022-08-12T10:38:34.637Z,3.72
2022-08-12T10:40:33.069Z,2.45
2022-08-12T10:43:20.536Z,4.13
2022-08-12T10:45:51.871Z,4.85
2022-08-12T10:48:33.476Z,5.53
2022-08-12T10:52:02.931Z,3.33
2022-08-12T10:54:00.922Z,4.10
2022-08-12T10:56:34.613Z,4.28
2022-08-12T10:59:05.233Z,10.00
2022-08-12T11:04:18.771Z,4.70
2022-08-12T11:04:35.314Z,6.75
2022-08-12T11:08:38.193Z,5.13
2022-08-12T11:10:00.305Z,2.90
2022-08-12T11:12:54.891Z,2.80
2022-08-12T11:15:33.236Z,2.33
2022-08-12T11:18:07.800Z,5.25
2022-08-12T11:20:39.990Z,5.40
2022-08-12T11:23:25.305Z,4.15
2022-08-12T11:26:00.499Z,4.43
2022-08-12T11:28:33.523Z,3.55
2022-08-12T11:31:04.393Z,3.58
2022-08-12T11:34:05.579Z,2.80
2022-08-12T11:36:21.884Z,4.50
2022-08-12T11:38:51.380Z,2.20
2022-08-12T11:41:31.775Z,2.70
2022-08-12T11:44:02.009Z,5.93
2022-08-12T11:46:51.436Z,5.60
2022-08-12T11:49:31.218Z,3.70
2022-08-12T11:52:03.305Z,3.83
2022-08-12T11:54:31.497Z,5.53
2022-08-12T11:57:01.955Z,4.88
2022-08-12T12:02:20.424Z,5.43
2022-08-12T12:04:52.941Z,3.58
2022-08-12T12:08:36.169Z,5.20
2022-08-12T12:10:17.940Z,5.20
2022-08-12T12:12:49.990Z,3.05
2022-08-12T12:15:24.814Z,3.83
2022-08-12T12:17:54.979Z,3.17
2022-08-12T12:20:26.117Z,3.00
2022-08-12T12:22:57.951Z,2.97
2022-08-12T12:25:59.551Z,5.22
2022-08-12T12:28:19.980Z,3.22
2022-08-12T12:31:01.166Z,5.65
2022-08-12T12:33:57.255Z,4.80
2022-08-12T12:36:24.067Z,3.67
2022-08-12T12:38:56.964Z,6.82
2022-08-12T12:41:48.163Z,5.85
2022-08-12T12:44:13.386Z,4.50
2022-08-12T12:46:54.799Z,6.72
2022-08-12T12:49:26.099Z,3.20
2022-08-12T12:54:52.684Z,5.40
2022-08-12T12:57:21.596Z,6.10
2022-08-12T13:00:20.708Z,6.20
2022-08-12T13:02:53.871Z,6.40
2022-08-12T13:05:28.271Z,5.53
2022-08-12T13:08:01.044Z,3.90
2022-08-12T13:10:36.786Z,7.10
2022-08-12T13:14:07.821Z,5.05
2022-08-12T13:15:53.782Z,4.88
2022-08-12T13:18:28.882Z,4.05
2022-08-12T13:20:59.455Z,6.60
2022-08-12T13:23:37.029Z,5.35
2022-08-12T13:26:04.638Z,4.97
2022-08-12T13:28:32.173Z,4.38
2022-08-12T13:31:00.502Z,4.35
2022-08-12T13:33:29.271Z,5.75
2022-08-12T13:36:18.215Z,7.63
2022-08-12T13:38:54.168Z,9.98
2022-08-12T13:41:33.298Z,4.70
2022-08-12T13:44:01.377Z,6.30
2022-08-12T13:46:28.705Z,6.97
2022-08-12T13:48:56.584Z,6.32
2022-08-12T13:51:24.747Z,11.70
2022-08-12T13:53:58.827Z,5.55
2022-08-12T13:56:34.828Z,5.60
2022-08-12T13:59:05.695Z,8.35
2022-08-12T14:01:40.670Z,8.93
2022-08-12T14:04:11.355Z,5.75
2022-08-12T14:06:40.410Z,7.85
2022-08-12T14:09:17.483Z,8.38
2022-08-12T14:11:59.380Z,10.60
2022-08-12T14:14:31.394Z,6.45
2022-08-12T14:17:09.938Z,5.93
2022-08-12T14:19:48.585Z,5.65
2022-08-12T14:22:20.237Z,9.73
2022-08-12T14:24:47.156Z,7.35
2022-08-12T14:27:14.142Z,4.80
2022-08-12T14:30:15.296Z,5.00
2022-08-12T14:32:44.229Z,7.97
2022-08-12T14:35:12.526Z,7.95
2022-08-12T14:37:56.474Z,6.10
2022-08-12T14:40:29.981Z,8.48
2022-08-12T14:42:58.370Z,5.85
2022-08-12T14:45:44.269Z,5.72
2022-08-12T14:48:14.895Z,7.22
2022-08-12T14:51:09.797Z,7.95
2022-08-12T14:57:19.561Z,6.32
2022-08-12T14:59:27.008Z,5.60
2022-08-12T15:02:20.889Z,5.03
2022-08-12T15:04:56.135Z,5.40
2022-08-12T15:07:34.333Z,8.23
2022-08-12T15:10:10.854Z,5.35
2022-08-12T15:12:40.471Z,6.68
2022-08-12T15:15:10.292Z,6.40
2022-08-12T15:17:38.816Z,8.60
2022-08-12T15:20:31.456Z,5.78
2022-08-12T15:22:57.844Z,7.82
2022-08-12T15:25:26.037Z,7.18
2022-08-12T15:28:03.920Z,5.47
2022-08-12T15:30:40.070Z,5.13
2022-08-12T15:33:12.841Z,5.35
2022-08-12T15:35:52.885Z,6.38
2022-08-12T15:38:25.035Z,8.65
2022-08-12T15:40:54.625Z,8.02
2022-08-12T15:43:35.402Z,9.90
2022-08-12T15:46:15.006Z,6.20
2022-08-12T15:48:47.727Z,8.32
2022-08-12T15:51:58.803Z,8.93
2022-08-12T15:54:33.296Z,8.25
2022-08-12T15:57:10.763Z,5.28
2022-08-12T16:00:00.448Z,9.32
2022-08-12T16:02:29.520Z,9.45
2022-08-12T16:04:57.246Z,10.00
2022-08-12T16:07:29.971Z,7.05
2022-08-12T16:10:05.844Z,7.95
2022-08-12T16:12:54.958Z,7.75
2022-08-12T16:15:26.365Z,8.18
2022-08-12T16:18:15.378Z,9.13
2022-08-12T16:20:46.919Z,7.55
2022-08-12T16:23:36.140Z,9.73
2022-08-12T16:26:15.346Z,7.63
2022-08-12T16:28:47.451Z,6.70
2022-08-12T16:31:22.618Z,9.57
2022-08-12T16:33:58.841Z,8.80
2022-08-12T16:36:31.326Z,6.38
2022-08-12T16:39:01.479Z,11.13
2022-08-12T16:41:39.464Z,11.77
2022-08-12T16:44:08.827Z,7.72
2022-08-12T16:46:39.199Z,8.48
2022-08-12T16:49:08.942Z,8.88
2022-08-12T16:51:47.041Z,8.48
2022-08-12T16:54:17.215Z,13.85
2022-08-12T16:56:50.807Z,11.85
2022-08-12T16:59:30.953Z,13.55
2022-08-12T17:02:31.205Z,7.43
2022-08-12T17:05:04.656Z,13.68
2022-08-12T17:07:38.094Z,11.68
2022-08-12T17:10:12.136Z,8.55
2022-08-12T17:12:39.426Z,12.30
2022-08-12T17:15:21.657Z,10.40
2022-08-12T17:18:39.489Z,9.27
2022-08-12T17:20:47.288Z,7.88
2022-08-12T17:23:17.504Z,10.13
2022-08-12T17:25:50.416Z,11.18
2022-08-12T17:28:19.154Z,10.30
2022-08-12T17:30:57.227Z,9.95
2022-08-12T17:33:33.607Z,10.27
2022-08-12T17:36:03.196Z,14.52
2022-08-12T17:38:30.595Z,8.82
2022-08-12T17:40:58.217Z,11.07
2022-08-12T17:43:56.464Z,15.20
2022-08-12T17:46:24.207Z,9.05
2022-08-12T17:49:00.245Z,9.95
2022-08-12T17:51:31.634Z,9.07
2022-08-12T17:54:10.363Z,10.13
2022-08-12T17:56:43.283Z,8.40
2022-08-12T17:59:12.579Z,10.45
2022-08-12T18:01:45.403Z,8.50
2022-08-12T18:04:22.050Z,7.18
2022-08-12T18:06:54.016Z,6.85
2022-08-12T18:09:24.450Z,7.03
2022-08-12T18:12:12.815Z,8.85
2022-08-12T18:14:41.472Z,8.93
2022-08-12T18:17:17.992Z,9.77
2022-08-12T18:20:06.961Z,11.52
2022-08-12T18:22:33.847Z,7.95
2022-08-12T18:25:05.072Z,13.25
2022-08-12T18:27:46.704Z,18.67
2022-08-12T18:30:29.543Z,20.60
2022-08-12T18:33:04.284Z,15.57
2022-08-12T18:35:47.926Z,13.70
2022-08-12T18:38:27.821Z,17.38
2022-08-12T18:41:22.051Z,24.23
2022-08-12T18:44:08.214Z,20.67
2022-08-12T18:46:53.250Z,17.55
2022-08-12T18:49:43.831Z,17.15
2022-08-12T18:52:18.499Z,13.85
2022-08-12T18:55:08.122Z,18.60
2022-08-12T18:58:06.768Z,18.17
2022-08-12T19:00:50.843Z,14.07
2022-08-12T19:03:40.309Z,12.93
2022-08-12T19:06:16.059Z,12.85
2022-08-12T19:09:10.028Z,15.55
2022-08-12T19:12:02.969Z,11.93
2022-08-12T19:14:51.833Z,12.25
2022-08-12T19:17:47.730Z,13.13
2022-08-12T19:20:48.082Z,11.35
2022-08-12T19:23:33.918Z,13.70
2022-08-12T19:26:26.969Z,11.32
2022-08-12T19:29:01.881Z,13.05
2022-08-12T19:31:58.245Z,12.68
2022-08-12T19:38:06.744Z,9.70
2022-08-12T19:40:39.956Z,9.82
2022-08-12T19:43:40.737Z,13.40
2022-08-12T19:46:27.899Z,13.43
2022-08-12T19:49:22.382Z,10.57
2022-08-12T19:52:02.853Z,10.50
2022-08-12T19:54:58.854Z,12.57
2022-08-12T19:58:01.426Z,11.85
2022-08-12T20:00:54.608Z,15.07
2022-08-12T20:03:39.811Z,13.18
2022-08-12T20:06:33.943Z,12.25
2022-08-12T20:09:15.879Z,10.13
2022-08-12T20:12:12.014Z,12.95
2022-08-12T20:14:58.881Z,16.15
2022-08-12T20:17:36.375Z,10.88
2022-08-12T20:20:19.134Z,14.18
2022-08-12T20:22:48.479Z,14.60
2022-08-12T20:25:17.439Z,13.07
2022-08-12T20:28:05.631Z,11.18
2022-08-12T20:30:52.903Z,9.55
2022-08-12T20:33:50.409Z,17.67
2022-08-12T20:36:40.990Z,14.30
2022-08-12T20:39:01.179Z,16.92
2022-08-12T20:41:30.247Z,14.18
2022-08-12T20:43:59.637Z,13.45
2022-08-12T20:46:31.663Z,15.25
2022-08-12T20:49:14.368Z,12.25
2022-08-12T20:51:55.382Z,12.88
2022-08-12T20:54:23.135Z,18.55
2022-08-12T20:57:02.025Z,16.38
2022-08-12T20:59:49.371Z,14.35
2022-08-12T21:02:24.126Z,21.02
2022-08-12T21:05:19.935Z,17.60
2022-08-12T21:07:51.620Z,15.25
2022-08-12T21:10:20.830Z,17.73
2022-08-12T21:12:48.731Z,15.27
2022-08-12T21:15:23.920Z,15.20
2022-08-12T21:18:11.761Z,14.80
2022-08-12T21:20:54.296Z,14.50
2022-08-12T21:23:21.905Z,14.02
2022-08-12T21:25:51.662Z,17.88
2022-08-12T21:28:21.072Z,14.52
2022-08-12T21:31:11.222Z,17.40
2022-08-12T21:33:58.675Z,14.70
2022-08-12T21:36:32.147Z,17.10
2022-08-12T21:39:19.244Z,18.60
2022-08-12T21:41:56.677Z,14.23
2022-08-12T21:45:45.455Z,17.77
2022-08-12T21:47:20.839Z,17.38
2022-08-12T21:50:04.253Z,17.75
2022-08-12T21:52:36.685Z,18.17
2022-08-12T21:55:18.366Z,18.70
2022-08-12T21:57:54.086Z,16.92
2022-08-12T22:00:33.416Z,18.42
2022-08-12T22:03:30.299Z,19.52
2022-08-12T22:06:26.317Z,17.88
2022-08-12T22:09:08.878Z,18.63
2022-08-12T22:11:43.863Z,18.77
2022-08-12T22:14:23.662Z,20.55
2022-08-12T22:16:55.036Z,20.08
2022-08-12T22:19:23.601Z,20.77
2022-08-12T22:21:55.718Z,20.63
2022-08-12T22:27:18.299Z,22.17
2022-08-12T22:30:08.712Z,20.40
2022-08-12T22:32:49.948Z,22.08
2022-08-12T22:35:56.663Z,18.33
2022-08-12T22:38:24.379Z,20.88
2022-08-12T22:41:30.178Z,20.15
2022-08-12T22:44:16.272Z,22.73
2022-08-12T22:46:54.257Z,23.67
2022-08-12T22:49:37.271Z,20.63
2022-08-12T22:52:14.369Z,16.95
2022-08-12T22:54:59.936Z,20.73
2022-08-12T22:57:53.713Z,17.38
2022-08-12T23:00:24.058Z,16.65
2022-08-12T23:02:58.361Z,18.02
2022-08-12T23:05:57.654Z,17.35
2022-08-12T23:08:29.851Z,21.00
2022-08-12T23:11:00.396Z,19.63
2022-08-12T23:13:55.141Z,20.15
2022-08-12T23:16:31.789Z,23.55
2022-08-12T23:19:17.768Z,18.35
2022-08-12T23:22:05.239Z,22.27
2022-08-12T23:24:53.945Z,18.25
2022-08-12T23:27:50.637Z,21.40
2022-08-12T23:30:32.294Z,17.63
2022-08-12T23:33:13.522Z,22.13
2022-08-12T23:35:59.131Z,20.27
2022-08-12T23:38:32.255Z,23.30
2022-08-12T23:41:02.670Z,20.08
2022-08-12T23:43:38.929Z,20.17
2022-08-12T23:46:12.411Z,21.75
2022-08-12T23:48:48.105Z,22.73
2022-08-12T23:51:22.094Z,22.50
2022-08-12T23:54:02.402Z,20.52
2022-08-12T23:56:33.921Z,22.20
2022-08-12T23:59:08.895Z,24.92
